createdAt,value
2023-05-23T00:01:31.672Z,8.77
2023-05-23T00:04:18.964Z,8.63
2023-05-23T00:07:06.311Z,7.65
2023-05-23T00:09:52.748Z,8.50
2023-05-23T00:12:39.514Z,7.97
2023-05-23T00:15:28.901Z,7.10
2023-05-23T00:18:18.064Z,7.43
2023-05-23T00:21:04.081Z,7.43
2023-05-23T00:23:51.525Z,8.45
2023-05-23T00:26:40.438Z,8.10
2023-05-23T00:29:26.364Z,7.82
2023-05-23T00:32:12.509Z,8.90
2023-05-23T00:34:58.656Z,8.52
2023-05-23T00:37:45.562Z,8.68
2023-05-23T00:40:32.640Z,8.75
2023-05-23T00:43:19.508Z,9.13
2023-05-23T00:46:05.889Z,9.23
2023-05-23T00:48:52.095Z,9.02
2023-05-23T00:51:38.048Z,8.45
2023-05-23T00:54:27.267Z,8.77
2023-05-23T00:57:15.138Z,8.77
2023-05-23T01:00:01.014Z,8.43
2023-05-23T01:02:51.188Z,9.20
2023-05-23T01:05:36.788Z,8.18
2023-05-23T01:08:22.451Z,7.60
2023-05-23T01:11:15.913Z,9.02
2023-05-23T01:14:09.374Z,7.55
2023-05-23T01:16:59.642Z,9.10
2023-05-23T01:20:12.655Z,10.03
2023-05-23T01:23:20.122Z,8.32
2023-05-23T01:26:23.445Z,8.63
2023-05-23T01:29:14.622Z,9.38
2023-05-23T01:34:47.947Z,8.02
2023-05-23T01:37:34.232Z,8.68
2023-05-23T01:40:20.374Z,7.70
2023-05-23T01:43:07.331Z,7.75
2023-05-23T01:45:56.242Z,7.95
2023-05-23T01:48:42.959Z,7.45
2023-05-23T01:51:28.932Z,7.00
2023-05-23T01:54:17.110Z,7.43
2023-05-23T01:57:04.035Z,7.15
2023-05-23T01:59:51.068Z,7.57
2023-05-23T02:02:38.494Z,7.68
2023-05-23T02:05:24.709Z,7.20
2023-05-23T02:08:10.404Z,7.25
2023-05-23T02:10:57.426Z,7.53
2023-05-23T02:13:43.258Z,7.47
2023-05-23T02:16:29.174Z,7.47
2023-05-23T02:19:16.584Z,7.30
2023-05-23T02:22:02.481Z,7.63
2023-05-23T02:24:49.419Z,7.22
2023-05-23T02:27:34.887Z,7.63
2023-05-23T02:30:20.850Z,7.20
2023-05-23T02:33:08.895Z,7.95
2023-05-23T02:35:56.228Z,7.55
2023-05-23T02:38:41.986Z,7.75
2023-05-23T02:41:27.814Z,8.20
2023-05-23T02:44:13.604Z,7.53
2023-05-23T02:46:59.546Z,7.85
2023-05-23T02:49:45.428Z,7.25
2023-05-23T02:52:33.397Z,7.70
2023-05-23T02:55:19.472Z,7.55
2023-05-23T02:58:07.147Z,7.20
2023-05-23T03:00:53.083Z,6.88
2023-05-23T03:03:38.817Z,6.90
2023-05-23T03:06:25.335Z,7.82
2023-05-23T03:09:12.250Z,7.07
2023-05-23T03:11:59.038Z,7.35
2023-05-23T03:14:44.757Z,6.88
2023-05-23T03:17:30.576Z,7.10
2023-05-23T03:20:17.042Z,7.10
2023-05-23T03:23:03.023Z,6.97
2023-05-23T03:25:50.125Z,7.80
2023-05-23T03:28:36.365Z,6.88
2023-05-23T03:31:22.299Z,6.65
2023-05-23T03:34:08.370Z,7.70
2023-05-23T03:36:55.977Z,7.05
2023-05-23T03:39:41.985Z,6.90
2023-05-23T03:42:29.845Z,6.90
2023-05-23T03:45:16.609Z,6.63
2023-05-23T03:48:02.705Z,7.50
2023-05-23T03:50:49.339Z,7.32
2023-05-23T03:53:36.646Z,7.53
2023-05-23T03:56:23.471Z,7.53
2023-05-23T03:59:10.435Z,8.23
2023-05-23T04:01:58.816Z,8.18
2023-05-23T04:04:46.906Z,7.47
2023-05-23T04:07:34.630Z,8.70
2023-05-23T04:10:20.939Z,8.43
2023-05-23T04:13:07.465Z,9.20
2023-05-23T04:15:57.792Z,9.15
2023-05-23T04:18:47.178Z,9.82
2023-05-23T04:21:33.014Z,9.02
2023-05-23T04:24:27.457Z,9.05
2023-05-23T04:27:13.718Z,9.10
2023-05-23T04:30:00.605Z,9.73
2023-05-23T04:32:48.388Z,9.25
2023-05-23T04:35:34.391Z,9.65
2023-05-23T04:38:22.138Z,9.40
2023-05-23T04:41:10.324Z,9.07
2023-05-23T04:44:15.117Z,8.50
2023-05-23T04:47:28.149Z,8.32
2023-05-23T04:50:22.922Z,7.55
2023-05-23T04:53:09.656Z,8.48
2023-05-23T04:55:55.879Z,7.25
2023-05-23T04:58:42.201Z,7.90
2023-05-23T05:01:29.985Z,8.55
2023-05-23T05:04:16.171Z,8.23
2023-05-23T05:07:05.302Z,7.70
2023-05-23T05:09:51.224Z,7.25
2023-05-23T05:12:37.342Z,6.30
2023-05-23T05:15:25.083Z,6.82
2023-05-23T05:18:16.428Z,5.82
2023-05-23T05:21:02.232Z,6.15
2023-05-23T05:23:49.952Z,4.82
2023-05-23T05:26:36.817Z,5.35
2023-05-23T05:29:23.143Z,5.15
2023-05-23T05:32:09.175Z,5.38
2023-05-23T05:34:55.008Z,5.13
2023-05-23T05:37:40.754Z,5.00
2023-05-23T05:40:31.472Z,5.28
2023-05-23T05:43:29.596Z,6.93
2023-05-23T05:46:15.400Z,4.93
2023-05-23T05:49:03.825Z,5.28
2023-05-23T05:51:49.920Z,5.30
2023-05-23T05:54:36.164Z,5.20
2023-05-23T05:57:26.175Z,4.95
2023-05-23T06:00:15.198Z,4.53
2023-05-23T06:03:12.762Z,5.40
2023-05-23T06:06:09.046Z,4.18
2023-05-23T06:08:56.855Z,4.28
2023-05-23T06:11:42.559Z,4.03
2023-05-23T06:14:30.089Z,4.10
2023-05-23T06:17:17.053Z,3.88
2023-05-23T06:20:06.944Z,4.03
2023-05-23T06:25:43.714Z,3.47
2023-05-23T06:28:29.649Z,4.22
2023-05-23T06:31:17.032Z,4.28
2023-05-23T06:34:03.036Z,4.47
2023-05-23T06:36:49.129Z,4.55
2023-05-23T06:39:35.455Z,3.95
2023-05-23T06:42:21.567Z,4.55
2023-05-23T06:45:16.438Z,4.50
2023-05-23T06:48:04.468Z,4.85
2023-05-23T06:50:52.382Z,4.15
2023-05-23T06:53:43.171Z,4.90
2023-05-23T06:56:29.418Z,4.53
2023-05-23T06:59:17.887Z,4.75
2023-05-23T07:02:04.411Z,4.60
2023-05-23T07:04:51.919Z,4.93
2023-05-23T07:07:57.404Z,5.18
2023-05-23T07:10:43.858Z,4.50
2023-05-23T07:13:49.866Z,5.25
2023-05-23T07:16:54.689Z,4.65
2023-05-23T07:19:40.582Z,4.75
2023-05-23T07:22:27.962Z,4.53
2023-05-23T07:25:14.293Z,4.28
2023-05-23T07:28:00.239Z,3.72
2023-05-23T07:30:46.630Z,4.20
2023-05-23T07:33:34.769Z,4.22
2023-05-23T07:39:12.415Z,2.97
2023-05-23T07:41:58.087Z,3.83
2023-05-23T07:44:44.217Z,2.83
2023-05-23T07:47:30.163Z,2.88
2023-05-23T07:50:16.193Z,2.83
2023-05-23T07:53:01.774Z,2.22
2023-05-23T07:55:51.396Z,3.35
2023-05-23T07:58:38.960Z,2.00
2023-05-23T08:01:25.567Z,2.30
2023-05-23T08:04:26.102Z,2.53
2023-05-23T08:07:13.231Z,2.30
2023-05-23T08:10:07.397Z,2.33
2023-05-23T08:12:54.726Z,2.38
2023-05-23T08:15:40.733Z,2.80
2023-05-23T08:18:33.843Z,2.40
2023-05-23T08:21:19.867Z,2.50
2023-05-23T08:24:06.564Z,2.50
2023-05-23T08:26:53.424Z,2.20
2023-05-23T08:29:42.938Z,2.22
2023-05-23T08:32:29.681Z,2.17
2023-05-23T08:35:15.828Z,2.65
2023-05-23T08:38:02.161Z,2.30
2023-05-23T08:40:53.794Z,2.75
2023-05-23T08:43:41.874Z,2.28
2023-05-23T08:46:33.990Z,2.65
2023-05-23T08:49:22.714Z,2.95
2023-05-23T08:52:13.383Z,2.55
2023-05-23T08:55:02.894Z,2.67
2023-05-23T08:57:52.401Z,2.63
2023-05-23T09:00:53.114Z,1.98
2023-05-23T09:03:44.503Z,2.50
2023-05-23T09:06:36.815Z,2.60
2023-05-23T09:09:23.388Z,2.55
2023-05-23T09:12:10.433Z,2.97
2023-05-23T09:14:57.726Z,2.60
2023-05-23T09:17:45.744Z,2.55
2023-05-23T09:20:33.527Z,2.85
2023-05-23T09:23:26.021Z,2.42
2023-05-23T09:26:13.430Z,2.53
2023-05-23T09:28:59.748Z,2.20
2023-05-23T09:31:45.688Z,2.20
2023-05-23T09:34:31.681Z,2.55
2023-05-23T09:37:19.497Z,2.50
2023-05-23T09:40:10.481Z,2.60
2023-05-23T09:43:02.736Z,2.58
2023-05-23T09:45:48.673Z,2.28
2023-05-23T09:48:34.274Z,2.58
2023-05-23T09:51:22.276Z,2.53
2023-05-23T09:54:10.086Z,2.42
2023-05-23T09:57:01.713Z,2.38
2023-05-23T09:59:54.337Z,2.47
2023-05-23T10:02:55.516Z,2.55
2023-05-23T10:05:45.576Z,2.47
2023-05-23T10:08:36.962Z,2.50
2023-05-23T10:12:22.918Z,2.40
2023-05-23T10:15:11.458Z,2.65
2023-05-23T10:18:09.458Z,2.42
2023-05-23T10:21:02.749Z,2.17
2023-05-23T10:23:49.485Z,2.75
2023-05-23T10:26:37.415Z,3.03
2023-05-23T10:29:23.731Z,2.42
2023-05-23T10:32:11.106Z,2.70
2023-05-23T10:35:01.738Z,2.42
2023-05-23T10:37:53.036Z,2.53
2023-05-23T10:40:50.363Z,2.38
2023-05-23T10:43:45.192Z,2.40
2023-05-23T10:46:53.827Z,2.10
2023-05-23T10:49:41.247Z,2.78
2023-05-23T10:52:27.081Z,2.67
2023-05-23T10:55:14.801Z,2.70
2023-05-23T10:58:11.229Z,2.55
2023-05-23T11:01:02.283Z,3.05
2023-05-23T11:03:54.833Z,2.92
2023-05-23T11:06:45.459Z,2.17
2023-05-23T11:09:31.512Z,2.17
2023-05-23T11:12:37.558Z,2.55
2023-05-23T11:15:24.034Z,2.28
2023-05-23T11:18:19.540Z,2.75
2023-05-23T11:21:06.507Z,2.45
2023-05-23T11:23:55.895Z,2.40
2023-05-23T11:26:54.057Z,1.77
2023-05-23T11:29:39.937Z,2.22
2023-05-23T11:32:29.195Z,2.28
2023-05-23T11:35:17.144Z,2.20
2023-05-23T11:38:04.466Z,2.13
2023-05-23T11:40:50.062Z,2.25
2023-05-23T11:43:36.167Z,2.45
2023-05-23T11:46:22.291Z,2.30
2023-05-23T11:49:12.728Z,2.63
2023-05-23T11:52:01.687Z,1.93
2023-05-23T11:54:47.592Z,2.10
2023-05-23T11:57:33.595Z,2.53
2023-05-23T12:00:20.159Z,2.35
2023-05-23T12:03:08.274Z,2.15
2023-05-23T12:05:55.254Z,2.50
2023-05-23T12:08:42.554Z,1.85
2023-05-23T12:11:31.745Z,1.92
2023-05-23T12:14:18.590Z,1.92
2023-05-23T12:17:05.042Z,2.40
2023-05-23T12:19:52.456Z,2.30
2023-05-23T12:22:38.643Z,2.88
2023-05-23T12:25:26.053Z,2.47
2023-05-23T12:28:13.820Z,2.42
2023-05-23T12:30:59.680Z,2.00
2023-05-23T12:33:48.361Z,2.35
2023-05-23T12:36:48.023Z,2.10
2023-05-23T12:39:36.559Z,2.17
2023-05-23T12:42:23.770Z,2.17
2023-05-23T12:45:13.391Z,2.13
2023-05-23T12:47:59.298Z,2.20
2023-05-23T12:50:45.321Z,2.60
2023-05-23T12:53:31.486Z,1.80
2023-05-23T12:56:17.410Z,1.83
2023-05-23T12:59:04.937Z,1.75
2023-05-23T13:01:50.883Z,1.60
2023-05-23T13:04:36.709Z,1.98
2023-05-23T13:07:23.095Z,2.08
2023-05-23T13:10:10.096Z,1.98
2023-05-23T13:12:55.923Z,1.90
2023-05-23T13:15:43.604Z,2.30
2023-05-23T13:18:29.752Z,1.90
2023-05-23T13:21:15.972Z,1.90
2023-05-23T13:24:01.627Z,2.53
2023-05-23T13:26:48.191Z,2.35
2023-05-23T13:29:34.684Z,2.17
2023-05-23T13:32:21.665Z,2.10
2023-05-23T13:35:08.696Z,1.90
2023-05-23T13:37:55.009Z,1.70
2023-05-23T13:40:43.195Z,1.98
2023-05-23T13:43:29.439Z,1.90
2023-05-23T13:46:15.558Z,2.03
2023-05-23T13:49:02.856Z,1.70
2023-05-23T13:51:49.910Z,1.85
2023-05-23T13:54:36.040Z,1.77
2023-05-23T13:57:22.280Z,2.10
2023-05-23T14:00:09.471Z,1.95
2023-05-23T14:02:55.243Z,1.90
2023-05-23T14:05:42.727Z,1.67
2023-05-23T14:08:28.406Z,1.80
2023-05-23T14:11:14.575Z,1.98
2023-05-23T14:14:00.565Z,2.40
2023-05-23T14:16:46.746Z,2.25
2023-05-23T14:19:33.247Z,2.40
2023-05-23T14:22:20.501Z,2.13
2023-05-23T14:25:07.081Z,2.40
2023-05-23T14:27:53.039Z,1.90
2023-05-23T14:30:38.949Z,1.70
2023-05-23T14:33:25.275Z,1.92
2023-05-23T14:36:11.399Z,2.47
2023-05-23T14:38:58.619Z,2.08
2023-05-23T14:41:44.716Z,2.45
2023-05-23T14:44:30.622Z,2.10
2023-05-23T14:47:16.656Z,2.47
2023-05-23T14:50:03.868Z,2.45
2023-05-23T14:52:49.799Z,1.88
2023-05-23T14:55:37.188Z,2.15
2023-05-23T14:58:23.957Z,1.65
2023-05-23T15:01:10.798Z,1.67
2023-05-23T15:03:57.054Z,1.83
2023-05-23T15:06:47.138Z,2.00
2023-05-23T15:09:33.895Z,1.70
2023-05-23T15:12:20.984Z,2.05
2023-05-23T15:15:08.303Z,1.63
2023-05-23T15:17:54.546Z,1.80
2023-05-23T15:20:40.736Z,1.90
2023-05-23T15:23:27.431Z,1.60
2023-05-23T15:26:13.600Z,1.45
2023-05-23T15:29:00.894Z,1.48
2023-05-23T15:31:47.374Z,1.92
2023-05-23T15:34:33.112Z,1.75
2023-05-23T15:37:19.077Z,1.70
2023-05-23T15:40:06.326Z,1.60
2023-05-23T15:42:52.401Z,1.75
2023-05-23T15:45:39.666Z,2.20
2023-05-23T15:48:25.628Z,1.98
2023-05-23T15:51:12.270Z,1.70
2023-05-23T15:54:01.101Z,2.00
2023-05-23T15:56:47.279Z,1.42
2023-05-23T15:59:33.016Z,1.85
2023-05-23T16:02:20.764Z,1.88
2023-05-23T16:05:07.472Z,1.95
2023-05-23T16:07:53.535Z,1.80
2023-05-23T16:10:39.696Z,2.45
2023-05-23T16:13:25.763Z,1.90
2023-05-23T16:16:11.883Z,1.60
2023-05-23T16:18:59.023Z,1.98
2023-05-23T16:21:45.792Z,1.60
2023-05-23T16:24:31.887Z,1.83
2023-05-23T16:27:17.778Z,1.98
2023-05-23T16:30:07.728Z,1.90
2023-05-23T16:32:53.922Z,1.50
2023-05-23T16:35:41.235Z,2.08
2023-05-23T16:38:27.279Z,1.73
2023-05-23T16:41:13.325Z,1.70
2023-05-23T16:43:59.262Z,2.13
2023-05-23T16:46:45.248Z,2.00
2023-05-23T16:49:31.392Z,1.63
2023-05-23T16:52:18.942Z,1.70
2023-05-23T16:55:05.472Z,2.33
2023-05-23T16:57:51.654Z,1.70
2023-05-23T17:00:37.675Z,1.85
2023-05-23T17:03:23.857Z,1.80
2023-05-23T17:06:09.947Z,1.55
2023-05-23T17:08:57.654Z,1.83
2023-05-23T17:11:43.356Z,1.90
2023-05-23T17:14:29.418Z,1.55
2023-05-23T17:17:15.511Z,2.05
2023-05-23T17:20:01.410Z,2.40
2023-05-23T17:22:47.379Z,1.95
2023-05-23T17:25:34.835Z,1.83
2023-05-23T17:29:05.702Z,1.77
2023-05-23T17:31:58.374Z,1.83
2023-05-23T17:34:44.617Z,1.65
2023-05-23T17:37:30.982Z,2.10
2023-05-23T17:40:17.809Z,2.30
2023-05-23T17:43:04.958Z,1.98
2023-05-23T17:45:50.836Z,1.85
2023-05-23T17:48:46.888Z,2.20
2023-05-23T17:51:37.084Z,1.88
2023-05-23T17:54:23.355Z,1.98
2023-05-23T17:57:09.160Z,1.90
2023-05-23T17:59:56.885Z,1.58
2023-05-23T18:02:43.243Z,1.77
2023-05-23T18:05:29.111Z,1.60
2023-05-23T18:08:15.160Z,1.50
2023-05-23T18:11:01.346Z,1.60
2023-05-23T18:13:47.410Z,2.15
2023-05-23T18:16:35.243Z,1.80
2023-05-23T18:19:23.496Z,1.80
2023-05-23T18:22:09.626Z,1.83
2023-05-23T18:24:55.441Z,1.63
2023-05-23T18:27:41.808Z,1.60
2023-05-23T18:30:27.970Z,2.00
2023-05-23T18:33:15.321Z,1.90
2023-05-23T18:36:01.526Z,1.35
2023-05-23T18:38:47.790Z,1.58
2023-05-23T18:41:33.607Z,1.75
2023-05-23T18:44:20.681Z,1.70
2023-05-23T18:47:07.225Z,2.05
2023-05-23T18:49:54.345Z,2.10
2023-05-23T18:52:40.299Z,1.55
2023-05-23T18:55:26.844Z,1.80
2023-05-23T18:58:13.116Z,1.70
2023-05-23T19:01:03.581Z,1.58
2023-05-23T19:03:49.361Z,1.60
2023-05-23T19:06:36.833Z,1.52
2023-05-23T19:09:22.909Z,1.92
2023-05-23T19:12:08.981Z,1.77
2023-05-23T19:14:54.626Z,2.33
2023-05-23T19:17:41.596Z,1.95
2023-05-23T19:20:27.277Z,1.70
2023-05-23T19:23:14.775Z,2.08
2023-05-23T19:26:00.823Z,1.65
2023-05-23T19:28:46.716Z,2.20
2023-05-23T19:31:33.877Z,1.85
2023-05-23T19:34:20.156Z,1.67
2023-05-23T19:37:06.364Z,1.60
2023-05-23T19:39:53.633Z,2.05
2023-05-23T19:42:39.580Z,1.90
2023-05-23T19:45:25.642Z,1.80
2023-05-23T19:48:12.222Z,1.98
2023-05-23T19:50:58.163Z,1.95
2023-05-23T19:53:44.409Z,1.90
2023-05-23T19:56:32.455Z,1.98
2023-05-23T19:59:18.177Z,2.10
2023-05-23T20:02:04.122Z,2.00
2023-05-23T20:04:50.099Z,1.98
2023-05-23T20:07:39.666Z,1.98
2023-05-23T20:10:25.828Z,1.75
2023-05-23T20:13:13.162Z,2.08
2023-05-23T20:15:59.101Z,2.35
2023-05-23T20:18:44.939Z,1.40
2023-05-23T20:21:36.706Z,1.63
2023-05-23T20:24:25.796Z,1.98
2023-05-23T20:27:11.769Z,2.38
2023-05-23T20:30:00.828Z,2.22
2023-05-23T20:32:46.530Z,2.28
2023-05-23T20:35:32.746Z,2.20
2023-05-23T20:38:19.913Z,1.65
2023-05-23T20:41:08.663Z,2.35
2023-05-23T20:43:55.500Z,2.72
2023-05-23T20:46:43.701Z,3.08
2023-05-23T20:49:29.190Z,2.10
2023-05-23T20:52:15.192Z,2.50
2023-05-23T20:55:02.855Z,1.95
2023-05-23T20:57:51.373Z,1.90
2023-05-23T21:00:37.302Z,2.40
2023-05-23T21:03:24.494Z,2.10
2023-05-23T21:06:10.198Z,3.13
2023-05-23T21:08:56.030Z,2.10
2023-05-23T21:11:42.162Z,2.17
2023-05-23T21:14:27.986Z,3.13
2023-05-23T21:17:14.505Z,2.40
2023-05-23T21:20:05.615Z,2.92
2023-05-23T21:22:51.527Z,2.22
2023-05-23T21:25:37.528Z,3.00
2023-05-23T21:28:23.606Z,2.70
2023-05-23T21:31:09.806Z,2.60
2023-05-23T21:33:55.862Z,2.63
2023-05-23T21:36:43.128Z,2.35
2023-05-23T21:39:36.292Z,2.70
2023-05-23T21:42:30.908Z,3.00
2023-05-23T21:45:16.611Z,2.45
2023-05-23T21:48:02.513Z,2.35
2023-05-23T21:50:48.449Z,2.88
2023-05-23T21:53:35.846Z,3.00
2023-05-23T21:56:21.572Z,3.03
2023-05-23T21:59:07.797Z,2.75
2023-05-23T22:01:53.924Z,2.35
2023-05-23T22:04:39.779Z,2.28
2023-05-23T22:07:25.900Z,2.78
2023-05-23T22:10:13.246Z,2.60
2023-05-23T22:12:59.418Z,2.35
2023-05-23T22:15:45.594Z,3.10
2023-05-23T22:18:51.189Z,2.28
2023-05-23T22:21:37.892Z,3.22
2023-05-23T22:24:23.954Z,2.58
2023-05-23T22:27:11.459Z,2.50
2023-05-23T22:29:57.970Z,2.22
2023-05-23T22:32:44.174Z,2.53
2023-05-23T22:35:29.954Z,2.35
2023-05-23T22:38:16.210Z,2.78
2023-05-23T22:41:02.700Z,2.30
2023-05-23T22:43:49.632Z,2.80
2023-05-23T22:46:36.544Z,2.85
2023-05-23T22:49:22.425Z,2.63
2023-05-23T22:52:08.541Z,2.70
2023-05-23T22:54:54.653Z,2.75
2023-05-23T22:57:40.599Z,2.60
2023-05-23T23:00:27.664Z,3.03
2023-05-23T23:03:15.385Z,3.33
2023-05-23T23:06:00.970Z,2.92
2023-05-23T23:08:47.688Z,2.95
2023-05-23T23:11:33.678Z,2.72
2023-05-23T23:14:19.486Z,3.17
2023-05-23T23:17:06.851Z,3.13
2023-05-23T23:19:54.736Z,3.22
2023-05-23T23:22:40.287Z,3.20
2023-05-23T23:25:26.258Z,2.75
2023-05-23T23:28:12.244Z,2.72
2023-05-23T23:30:58.262Z,3.00
2023-05-23T23:33:45.779Z,2.75
2023-05-23T23:36:31.845Z,3.38
2023-05-23T23:39:17.552Z,2.88
2023-05-23T23:42:03.514Z,2.70
2023-05-23T23:44:49.555Z,3.10
2023-05-23T23:47:35.492Z,3.17
2023-05-23T23:50:22.848Z,3.63
2023-05-23T23:53:08.673Z,3.55
2023-05-23T23:55:54.360Z,3.38
2023-05-23T23:58:40.133Z,3.05
